Springdale, Nebraska
Current Conditions -  °F | °C
As of 12:53 PM on Thursday 30 Oct 2014 (Local Time) from KODX Reporting Station
Clear Clear  
Wind Chill: 59°   Ceiling: Unl
Heat Index: 59°   Visibility: 10mi
Dew Point: 35°   Wind: 24mph
Humidity: 41%   Direction: 330°NNW
Pressure: 30.19"   Gusts: 32mph
Location:  41.579°N, 98.9733°W
Report Text: KODX 301753Z AUTO 33021G28KT 10SM CLR 15/02 A3019 RMK AO2 PK WND 33028/1752 SLP229 T01500017 10150 21006 51010
Loading
Personal Weather Stations






























Interactive Weather Map
Tropical Storm Tracking
New forecast layout! Learn more

10-Day Weather Forecast

Advertisements
Track Severe Weather on mobile